Time;durP1;ratioP1;P1;durP2;ratioP2;P2;SDS_P1;SDS_P2;PMS_P1;PMS_P2;Temp;Humidity;BMP_temperature;BMP_pressure;BME280_temperature;BME280_humidity;BME280_pressure;Samples;Min_cycle;Max_cycle;Signal;HPM_P1;HPM_P2
2023/09/26 00:00:14;;;;;;;8.20;7.33;;;16.70;99.90;;;;;;5033158;28;20260;-66
2023/09/26 00:02:39;;;;;;;7.20;6.50;;;16.70;99.90;;;;;;5031611;28;20207;-63
2023/09/26 00:05:07;;;;;;;7.30;6.70;;;16.80;99.90;;;;;;5034450;28;20211;-62
2023/09/26 00:07:32;;;;;;;7.70;6.57;;;16.80;99.90;;;;;;5034536;28;20261;-62
2023/09/26 00:10:00;;;;;;;7.20;6.57;;;16.70;99.90;;;;;;5038080;28;20191;-61
2023/09/26 00:12:26;;;;;;;6.80;6.17;;;16.70;99.90;;;;;;5034020;28;20279;-62
2023/09/26 00:14:51;;;;;;;6.27;5.77;;;16.70;99.90;;;;;;5036481;28;20792;-61
2023/09/26 00:17:17;;;;;;;8.50;6.77;;;16.70;99.90;;;;;;5036899;28;20629;-61
2023/09/26 00:19:43;;;;;;;7.07;6.37;;;16.60;99.90;;;;;;5036807;28;20209;-62
2023/09/26 00:22:08;;;;;;;7.00;6.23;;;16.60;99.90;;;;;;5040605;28;20193;-61
2023/09/26 00:24:34;;;;;;;7.00;6.30;;;16.50;99.90;;;;;;5042792;28;20275;-62
2023/09/26 00:26:59;;;;;;;7.30;6.60;;;16.50;99.90;;;;;;5039889;28;20283;-62
2023/09/26 00:29:24;;;;;;;8.13;6.53;;;16.50;99.90;;;;;;5037649;28;20685;-62
2023/09/26 00:31:53;;;;;;;9.33;6.87;;;16.60;99.90;;;;;;5035909;28;20269;-62
2023/09/26 00:34:19;;;;;;;8.93;6.63;;;16.50;99.90;;;;;;5033744;28;20196;-62
2023/09/26 00:36:45;;;;;;;7.33;6.73;;;16.40;99.90;;;;;;5037987;28;20199;-62
2023/09/26 00:39:11;;;;;;;7.43;6.33;;;16.20;99.90;;;;;;5038576;28;20213;-63
2023/09/26 00:41:38;;;;;;;10.90;7.00;;;16.00;99.90;;;;;;5035764;28;20562;-63
2023/09/26 00:44:06;;;;;;;7.60;6.90;;;16.10;99.90;;;;;;5038480;28;20204;-67
2023/09/26 00:46:32;;;;;;;8.83;6.13;;;16.10;99.90;;;;;;5036668;28;20199;-67
2023/09/26 00:48:58;;;;;;;7.87;7.07;;;16.20;99.90;;;;;;5035523;28;20723;-66
2023/09/26 00:51:23;;;;;;;7.47;6.40;;;16.10;99.90;;;;;;5032148;28;20212;-67
2023/09/26 00:53:49;;;;;;;11.20;7.37;;;16.10;99.90;;;;;;5039288;28;20229;-64
2023/09/26 00:56:15;;;;;;;8.30;7.50;;;16.10;99.90;;;;;;5032170;28;20552;-71
2023/09/26 00:58:41;;;;;;;7.23;6.50;;;16.00;99.90;;;;;;5033203;28;20200;-64
2023/09/26 01:01:07;;;;;;;10.60;7.10;;;16.00;99.90;;;;;;5036031;28;20545;-62
2023/09/26 01:03:34;;;;;;;6.87;6.27;;;15.90;99.90;;;;;;5036295;28;20561;-62
2023/09/26 01:06:01;;;;;;;7.40;6.63;;;15.80;99.90;;;;;;5041745;28;20187;-63
2023/09/26 01:08:26;;;;;;;9.17;6.53;;;15.80;99.90;;;;;;5039016;28;20293;-62
2023/09/26 01:10:52;;;;;;;7.97;7.17;;;15.80;99.90;;;;;;5041422;28;20294;-71
2023/09/26 01:13:17;;;;;;;7.70;6.77;;;15.80;99.90;;;;;;5035292;28;20257;-70
2023/09/26 01:15:43;;;;;;;7.97;7.23;;;15.70;99.90;;;;;;5036785;28;20283;-70
2023/09/26 01:18:14;;;;;;;7.10;6.50;;;15.80;99.90;;;;;;5039454;28;20195;-70
2023/09/26 01:20:44;;;;;;;8.00;7.20;;;15.80;99.90;;;;;;5033346;28;20187;-66
2023/09/26 01:23:14;;;;;;;8.50;7.70;;;15.70;99.90;;;;;;5039623;28;20187;-66
2023/09/26 01:25:40;;;;;;;8.03;7.33;;;15.60;99.90;;;;;;5035827;28;20196;-67
2023/09/26 01:28:07;;;;;;;8.07;7.30;;;15.60;99.90;;;;;;5037960;28;20204;-66
2023/09/26 01:30:41;;;;;;;8.13;7.43;;;15.50;99.90;;;;;;5035283;28;20201;-67
2023/09/26 01:33:11;;;;;;;9.43;7.50;;;15.40;99.90;;;;;;5033872;28;20219;-67
2023/09/26 01:35:36;;;;;;;8.67;7.90;;;15.50;99.90;;;;;;5039520;28;20224;-66
2023/09/26 01:38:02;;;;;;;8.43;7.57;;;15.50;99.90;;;;;;5033834;28;20679;-67
2023/09/26 01:40:28;;;;;;;8.50;7.63;;;15.70;99.90;;;;;;5040698;28;20199;-68
2023/09/26 01:42:53;;;;;;;8.40;7.60;;;15.80;99.90;;;;;;5037220;28;20193;-67
2023/09/26 01:45:19;;;;;;;8.00;7.30;;;15.60;99.90;;;;;;5035364;28;20395;-67
2023/09/26 01:47:49;;;;;;;8.13;7.33;;;15.60;99.90;;;;;;5040332;28;20197;-69
2023/09/26 01:50:17;;;;;;;9.33;8.40;;;15.60;99.90;;;;;;5032142;28;20205;-67
2023/09/26 01:52:45;;;;;;;10.00;8.60;;;15.60;99.90;;;;;;5033365;28;20213;-69
2023/09/26 01:55:18;;;;;;;14.87;9.87;;;15.60;99.90;;;;;;5036822;28;20307;-68
2023/09/26 01:57:47;;;;;;;9.70;8.70;;;15.60;99.90;;;;;;5036851;28;20208;-67
2023/09/26 02:00:14;;;;;;;9.50;8.50;;;15.60;99.90;;;;;;5035199;28;20296;-68
2023/09/26 02:02:44;;;;;;;10.90;7.80;;;15.50;99.90;;;;;;5036922;28;20207;-66
2023/09/26 02:05:11;;;;;;;9.30;8.43;;;15.50;99.90;;;;;;5034452;28;20207;-65
2023/09/26 02:07:37;;;;;;;8.77;7.57;;;15.40;99.90;;;;;;5034446;28;20241;-64
2023/09/26 02:10:04;;;;;;;9.30;8.03;;;15.20;99.90;;;;;;5035033;28;20286;-64
2023/09/26 02:12:30;;;;;;;9.53;7.47;;;15.20;99.90;;;;;;5032977;28;20223;-67
2023/09/26 02:14:56;;;;;;;9.77;8.13;;;15.10;99.90;;;;;;5039735;28;20520;-66
2023/09/26 02:17:21;;;;;;;8.77;8.03;;;15.20;99.90;;;;;;5040038;28;20196;-66
2023/09/26 02:19:47;;;;;;;8.93;8.13;;;15.20;99.90;;;;;;5044256;28;20230;-68
2023/09/26 02:22:13;;;;;;;9.00;8.20;;;15.20;99.90;;;;;;5037654;28;20569;-66
2023/09/26 02:24:38;;;;;;;10.30;8.77;;;15.20;99.90;;;;;;5037967;28;20262;-67
2023/09/26 02:27:03;;;;;;;8.07;7.13;;;15.20;99.90;;;;;;5035376;28;20194;-67
2023/09/26 02:29:29;;;;;;;8.30;7.40;;;15.20;99.90;;;;;;5034500;28;20286;-67
2023/09/26 02:31:54;;;;;;;9.33;7.87;;;15.20;99.90;;;;;;5034433;28;20277;-66
2023/09/26 02:34:22;;;;;;;8.43;7.70;;;15.30;99.90;;;;;;5039791;28;20196;-67
2023/09/26 02:36:48;;;;;;;8.77;7.97;;;15.30;99.90;;;;;;5036865;28;20199;-67
2023/09/26 02:39:13;;;;;;;8.90;8.10;;;15.30;99.90;;;;;;5033827;28;20225;-66
2023/09/26 02:41:39;;;;;;;9.30;8.33;;;15.20;99.90;;;;;;5034144;28;20258;-67
2023/09/26 02:44:06;;;;;;;8.97;7.77;;;15.20;99.90;;;;;;5035220;28;20204;-66
2023/09/26 02:46:32;;;;;;;9.37;8.47;;;15.10;99.90;;;;;;5037912;28;20717;-67
2023/09/26 02:49:00;;;;;;;9.27;8.27;;;15.10;99.90;;;;;;5037641;28;20203;-66
2023/09/26 02:51:26;;;;;;;9.93;9.00;;;15.10;99.90;;;;;;5033578;28;20307;-65
2023/09/26 02:53:51;;;;;;;8.83;7.83;;;15.10;99.90;;;;;;5035475;28;20203;-72
2023/09/26 02:56:17;;;;;;;9.40;8.47;;;15.20;99.90;;;;;;5036918;28;20665;-63
2023/09/26 02:58:42;;;;;;;10.57;8.00;;;15.20;99.90;;;;;;5037253;28;20205;-63
2023/09/26 03:01:08;;;;;;;9.07;8.27;;;15.10;99.90;;;;;;5033705;28;20199;-68
2023/09/26 03:03:33;;;;;;;8.40;7.60;;;15.10;99.90;;;;;;5033373;28;20745;-63
2023/09/26 03:06:00;;;;;;;9.47;8.57;;;15.10;99.90;;;;;;5039844;28;20569;-63
2023/09/26 03:08:25;;;;;;;9.93;8.97;;;15.10;99.90;;;;;;5032227;28;20553;-63
2023/09/26 03:10:51;;;;;;;9.47;8.53;;;15.00;99.90;;;;;;5033616;28;20206;-64
2023/09/26 03:13:16;;;;;;;9.73;8.83;;;15.00;99.90;;;;;;5027564;28;20215;-66
2023/09/26 03:15:42;;;;;;;10.97;8.80;;;15.00;99.90;;;;;;5035599;28;20597;-65
2023/09/26 03:18:07;;;;;;;9.53;8.73;;;15.10;99.90;;;;;;5033745;28;20209;-65
2023/09/26 03:20:38;;;;;;;9.33;8.23;;;15.10;99.90;;;;;;5040702;28;20210;-62
2023/09/26 03:23:04;;;;;;;10.73;8.97;;;15.10;99.90;;;;;;5032871;28;20200;-66
2023/09/26 03:25:32;;;;;;;10.57;8.43;;;15.10;99.90;;;;;;5038157;28;20231;-66
2023/09/26 03:28:03;;;;;;;11.27;9.23;;;15.00;99.90;;;;;;5035277;28;20215;-66
2023/09/26 03:30:29;;;;;;;10.23;7.73;;;15.00;99.90;;;;;;5037504;28;20189;-66
2023/09/26 03:32:55;;;;;;;10.90;8.93;;;15.10;99.90;;;;;;5039045;28;20981;-66
2023/09/26 03:35:20;;;;;;;10.70;9.60;;;15.10;99.90;;;;;;5034853;28;20206;-66
2023/09/26 03:37:45;;;;;;;10.83;9.20;;;15.10;99.90;;;;;;5036521;28;20191;-66
2023/09/26 03:40:11;;;;;;;9.43;8.63;;;15.10;99.90;;;;;;5036004;28;20715;-66
2023/09/26 03:42:37;;;;;;;10.03;9.03;;;15.00;99.90;;;;;;5035980;28;20611;-65
2023/09/26 03:45:02;;;;;;;14.00;9.33;;;15.00;99.90;;;;;;5041332;28;20204;-63
2023/09/26 03:47:28;;;;;;;9.47;8.57;;;15.00;99.90;;;;;;5031653;28;20227;-62
2023/09/26 03:49:54;;;;;;;10.23;9.30;;;15.00;99.90;;;;;;5041825;28;20683;-62
2023/09/26 03:52:20;;;;;;;10.00;9.10;;;15.10;99.90;;;;;;5040528;28;20226;-63
2023/09/26 03:54:45;;;;;;;8.90;8.07;;;15.10;99.90;;;;;;5037056;28;20208;-63
2023/09/26 03:57:11;;;;;;;10.00;9.03;;;15.10;99.90;;;;;;5037141;28;20241;-67
2023/09/26 03:59:36;;;;;;;9.33;8.53;;;15.00;99.90;;;;;;5034502;28;20685;-67
2023/09/26 04:02:02;;;;;;;13.97;9.70;;;15.00;99.90;;;;;;5036906;28;20207;-63
2023/09/26 04:04:29;;;;;;;10.47;9.47;;;15.00;99.90;;;;;;5031543;28;20202;-63
2023/09/26 04:06:54;;;;;;;10.77;9.77;;;14.90;99.90;;;;;;5032902;28;20202;-74
2023/09/26 04:09:20;;;;;;;9.20;8.30;;;14.80;99.90;;;;;;5031313;28;20237;-68
2023/09/26 04:11:48;;;;;;;10.23;8.37;;;14.80;99.90;;;;;;5031648;28;20313;-66
2023/09/26 04:14:13;;;;;;;12.03;10.57;;;14.80;99.90;;;;;;5031100;28;20288;-66
2023/09/26 04:16:39;;;;;;;10.50;8.80;;;14.80;99.90;;;;;;5032693;28;20763;-64
2023/09/26 04:19:04;;;;;;;14.20;9.37;;;14.70;99.90;;;;;;5031395;28;20198;-62
2023/09/26 04:21:30;;;;;;;15.20;11.40;;;14.70;99.90;;;;;;5032811;28;20274;-65
2023/09/26 04:23:55;;;;;;;15.73;11.53;;;14.70;99.90;;;;;;5032797;28;20183;-63
2023/09/26 04:26:21;;;;;;;13.20;11.17;;;14.70;99.90;;;;;;5037125;28;20201;-69
2023/09/26 04:28:47;;;;;;;10.73;9.43;;;14.80;99.90;;;;;;5036578;28;20649;-69
2023/09/26 04:31:16;;;;;;;11.27;10.10;;;14.80;99.90;;;;;;5042102;28;20776;-70
2023/09/26 04:33:43;;;;;;;10.33;9.33;;;14.70;99.90;;;;;;5035599;28;20335;-64
2023/09/26 04:36:09;;;;;;;12.43;8.93;;;14.70;99.90;;;;;;5050205;28;20202;-65
2023/09/26 04:38:35;;;;;;;11.07;9.97;;;14.70;99.90;;;;;;5045165;28;20599;-65
2023/09/26 04:41:02;;;;;;;12.40;9.47;;;14.80;99.90;;;;;;5045147;28;20202;-64
2023/09/26 04:43:29;;;;;;;10.80;9.70;;;14.80;99.90;;;;;;5039645;28;20283;-65
2023/09/26 04:45:55;;;;;;;10.60;9.47;;;14.80;99.90;;;;;;5047260;28;20206;-65
2023/09/26 04:48:20;;;;;;;12.93;9.80;;;14.80;99.90;;;;;;5060717;28;20282;-65
2023/09/26 04:50:46;;;;;;;11.17;10.07;;;14.80;99.90;;;;;;5047539;28;20214;-65
2023/09/26 04:53:11;;;;;;;11.70;10.60;;;14.80;99.90;;;;;;5049083;28;20214;-65
2023/09/26 04:55:37;;;;;;;13.03;11.83;;;14.90;99.90;;;;;;5049900;28;20729;-66
2023/09/26 04:58:04;;;;;;;12.83;11.50;;;15.00;99.90;;;;;;5059346;28;20183;-66
2023/09/26 05:00:30;;;;;;;13.87;12.47;;;15.00;99.90;;;;;;5049630;28;20229;-66
2023/09/26 05:02:57;;;;;;;13.67;11.63;;;15.00;99.90;;;;;;5062472;28;20273;-66
2023/09/26 05:05:23;;;;;;;12.20;11.00;;;15.00;99.90;;;;;;5049966;28;20947;-66
2023/09/26 05:07:49;;;;;;;13.53;12.20;;;15.10;99.90;;;;;;5056457;28;20248;-66
2023/09/26 05:10:16;;;;;;;13.33;11.93;;;15.10;99.90;;;;;;5052579;28;20203;-66
2023/09/26 05:12:42;;;;;;;13.17;11.80;;;15.00;99.90;;;;;;5053130;28;20231;-66
2023/09/26 05:15:15;;;;;;;12.93;11.57;;;15.10;99.90;;;;;;5058758;28;20203;-66
2023/09/26 05:17:48;;;;;;;12.90;11.70;;;15.10;99.90;;;;;;5029240;28;20245;-67
2023/09/26 05:20:14;;;;;;;14.30;13.00;;;15.10;99.90;;;;;;5049181;28;20216;-66
2023/09/26 05:22:45;;;;;;;17.27;12.57;;;15.10;99.90;;;;;;5045972;28;20187;-66
2023/09/26 05:25:11;;;;;;;16.00;14.50;;;15.20;99.90;;;;;;5054776;28;20289;-66
2023/09/26 05:27:38;;;;;;;14.00;12.60;;;15.30;99.90;;;;;;5046222;28;20268;-65
2023/09/26 05:30:06;;;;;;;14.20;12.63;;;15.20;99.90;;;;;;5055187;28;20195;-65
2023/09/26 05:32:32;;;;;;;13.27;11.87;;;15.20;99.90;;;;;;5056527;28;20219;-66
2023/09/26 05:34:58;;;;;;;14.87;12.50;;;15.10;99.90;;;;;;5062611;28;20226;-68
2023/09/26 05:37:23;;;;;;;16.30;12.27;;;15.10;99.90;;;;;;5046249;28;20227;-67
2023/09/26 05:39:49;;;;;;;14.93;13.33;;;15.10;99.90;;;;;;5049735;28;20289;-67
2023/09/26 05:42:14;;;;;;;15.53;13.77;;;15.10;99.90;;;;;;5053778;28;20195;-67
2023/09/26 05:44:40;;;;;;;16.67;13.67;;;15.10;99.90;;;;;;5041699;28;20209;-65
2023/09/26 05:47:06;;;;;;;17.93;14.30;;;15.20;99.90;;;;;;5038936;28;20181;-65
2023/09/26 05:49:31;;;;;;;15.90;14.30;;;15.20;99.90;;;;;;5058572;28;20907;-63
2023/09/26 05:51:56;;;;;;;17.13;15.00;;;15.20;99.90;;;;;;5049345;28;20340;-62
2023/09/26 05:54:22;;;;;;;15.87;14.23;;;15.20;99.90;;;;;;5060143;28;20688;-62
2023/09/26 05:56:48;;;;;;;15.73;14.13;;;15.00;99.90;;;;;;5046652;28;20187;-63
2023/09/26 05:59:13;;;;;;;15.07;13.57;;;15.10;99.90;;;;;;5050947;28;20226;-63
2023/09/26 06:01:39;;;;;;;13.33;12.13;;;15.10;99.90;;;;;;5040481;28;20274;-63
2023/09/26 06:04:05;;;;;;;16.43;13.93;;;15.20;99.90;;;;;;5054660;28;20438;-63
2023/09/26 06:06:32;;;;;;;14.83;13.40;;;15.20;99.90;;;;;;5044571;28;20215;-63
2023/09/26 06:08:58;;;;;;;16.87;13.47;;;15.30;99.90;;;;;;5054645;28;20198;-63
2023/09/26 06:11:24;;;;;;;15.83;14.23;;;15.30;99.90;;;;;;5063629;28;20166;-66
2023/09/26 06:13:52;;;;;;;15.97;14.37;;;15.30;99.90;;;;;;5045039;28;20295;-67
2023/09/26 06:16:18;;;;;;;16.63;14.93;;;15.40;99.90;;;;;;5033427;28;20188;-70
2023/09/26 06:18:44;;;;;;;18.43;14.97;;;15.40;99.90;;;;;;5047174;28;20657;-70
2023/09/26 06:21:09;;;;;;;18.43;14.47;;;15.50;99.90;;;;;;5055930;28;20205;-70
2023/09/26 06:23:36;;;;;;;16.50;15.00;;;15.60;99.90;;;;;;5038717;28;20210;-67
2023/09/26 06:26:02;;;;;;;15.13;13.53;;;15.60;99.90;;;;;;5044289;28;20207;-64
2023/09/26 06:28:28;;;;;;;17.23;14.50;;;15.60;99.90;;;;;;5049779;28;20200;-64
2023/09/26 06:30:53;;;;;;;17.20;14.10;;;15.70;99.90;;;;;;5044262;28;20669;-66
2023/09/26 06:33:19;;;;;;;17.43;14.10;;;15.70;99.90;;;;;;5063421;28;20214;-66
2023/09/26 06:35:44;;;;;;;16.70;14.73;;;15.60;99.90;;;;;;5042823;28;20294;-65
2023/09/26 06:38:09;;;;;;;15.17;13.67;;;15.70;99.90;;;;;;5061697;28;20214;-68
2023/09/26 06:40:35;;;;;;;15.70;14.10;;;15.80;99.90;;;;;;5042985;28;20206;-64
2023/09/26 06:43:02;;;;;;;17.33;15.47;;;15.80;99.90;;;;;;5052363;28;20211;-64
2023/09/26 06:45:28;;;;;;;19.40;14.73;;;16.00;99.90;;;;;;5043963;28;20908;-64
2023/09/26 06:47:54;;;;;;;21.33;16.90;;;15.80;99.90;;;;;;5044427;28;20195;-64
2023/09/26 06:50:21;;;;;;;19.93;16.73;;;15.90;99.90;;;;;;5049518;28;20206;-64
2023/09/26 06:52:47;;;;;;;17.53;15.80;;;15.70;99.90;;;;;;5058773;28;20211;-65
2023/09/26 06:55:12;;;;;;;22.03;16.20;;;15.70;99.90;;;;;;5049918;28;20214;-63
2023/09/26 06:57:39;;;;;;;16.77;15.07;;;15.70;99.90;;;;;;5049712;28;20823;-63
2023/09/26 07:00:05;;;;;;;21.37;17.63;;;15.70;99.90;;;;;;5054605;28;20306;-64
2023/09/26 07:02:31;;;;;;;19.73;17.83;;;15.80;99.90;;;;;;5047070;28;20248;-62
2023/09/26 07:04:57;;;;;;;20.90;18.77;;;15.60;99.90;;;;;;5041696;28;20211;-67
2023/09/26 07:07:23;;;;;;;22.10;18.27;;;15.70;99.90;;;;;;5062675;28;20212;-62
2023/09/26 07:09:49;;;;;;;20.50;18.33;;;15.90;99.90;;;;;;5045587;28;20256;-64
2023/09/26 07:12:17;;;;;;;20.47;18.37;;;16.00;99.90;;;;;;5062360;28;20287;-63
2023/09/26 07:14:42;;;;;;;19.27;17.27;;;16.00;99.90;;;;;;5049153;28;20193;-65
2023/09/26 07:17:11;;;;;;;20.67;17.87;;;16.10;99.90;;;;;;5048089;28;20179;-64
2023/09/26 07:19:37;;;;;;;20.70;18.20;;;16.10;99.90;;;;;;5049370;28;20202;-66
2023/09/26 07:22:02;;;;;;;20.40;16.83;;;16.30;99.90;;;;;;5047329;28;20233;-62
2023/09/26 07:24:28;;;;;;;20.33;18.23;;;16.30;99.90;;;;;;5045169;28;20211;-62
2023/09/26 07:26:53;;;;;;;21.73;17.50;;;16.30;99.90;;;;;;5063379;28;20186;-62
2023/09/26 07:29:19;;;;;;;19.93;17.57;;;16.40;99.90;;;;;;5056434;28;20194;-62
2023/09/26 07:31:45;;;;;;;19.50;17.40;;;16.50;99.90;;;;;;5047536;28;20183;-62
2023/09/26 07:34:11;;;;;;;22.60;16.33;;;16.50;99.90;;;;;;5058315;28;20809;-62
2023/09/26 07:36:36;;;;;;;19.37;17.33;;;16.60;99.90;;;;;;5063231;28;20176;-62
2023/09/26 07:39:03;;;;;;;20.07;18.13;;;16.60;99.90;;;;;;5043663;28;20207;-62
2023/09/26 07:41:29;;;;;;;18.87;17.10;;;16.70;99.90;;;;;;5047857;28;20772;-62
2023/09/26 07:43:55;;;;;;;19.50;17.00;;;16.70;99.90;;;;;;5052026;28;20294;-62
2023/09/26 07:46:21;;;;;;;21.10;18.63;;;16.80;99.90;;;;;;5031091;28;20278;-65
2023/09/26 07:48:47;;;;;;;20.23;18.13;;;17.00;99.90;;;;;;5036059;28;20288;-65
2023/09/26 07:51:12;;;;;;;18.90;15.97;;;17.00;99.90;;;;;;5032837;28;20197;-67
2023/09/26 07:53:38;;;;;;;19.50;17.20;;;17.10;99.90;;;;;;5035817;28;20279;-66
2023/09/26 07:56:04;;;;;;;20.50;18.07;;;17.20;99.90;;;;;;5038879;28;20287;-67
2023/09/26 07:58:30;;;;;;;20.23;18.13;;;17.30;99.90;;;;;;5037184;28;20199;-64
2023/09/26 08:01:06;;;;;;;19.07;17.10;;;17.40;99.90;;;;;;5029386;28;20549;-65
2023/09/26 08:03:31;;;;;;;19.20;17.17;;;17.60;99.90;;;;;;5033861;28;20515;-63
2023/09/26 08:06:05;;;;;;;23.20;18.93;;;17.60;99.90;;;;;;5042078;28;20206;-64
2023/09/26 08:08:31;;;;;;;20.33;17.47;;;17.60;99.90;;;;;;5038745;28;20187;-66
2023/09/26 08:11:08;;;;;;;20.07;17.97;;;17.70;99.90;;;;;;5033186;28;20198;-67
2023/09/26 08:13:34;;;;;;;19.47;17.37;;;17.80;99.90;;;;;;5034801;28;20219;-66
2023/09/26 08:16:00;;;;;;;18.47;16.57;;;17.90;99.90;;;;;;5040886;28;20196;-66
2023/09/26 08:18:25;;;;;;;19.33;17.00;;;17.90;99.90;;;;;;5039311;28;20802;-64
2023/09/26 08:20:57;;;;;;;21.63;17.37;;;17.90;99.90;;;;;;5034129;28;20215;-63
2023/09/26 08:23:23;;;;;;;18.83;16.23;;;17.90;99.90;;;;;;5036352;28;20925;-63
2023/09/26 08:25:49;;;;;;;17.53;15.73;;;18.10;99.90;;;;;;5034510;28;20224;-63
2023/09/26 08:28:15;;;;;;;18.77;16.87;;;18.10;99.90;;;;;;5035130;28;20220;-64
2023/09/26 08:30:41;;;;;;;18.73;16.37;;;18.10;99.90;;;;;;5035146;28;20203;-64
2023/09/26 08:33:06;;;;;;;22.03;17.97;;;18.20;99.90;;;;;;5041928;28;20226;-63
2023/09/26 08:35:32;;;;;;;23.87;16.10;;;18.20;99.90;;;;;;5034035;28;20249;-63
2023/09/26 08:37:57;;;;;;;19.27;16.53;;;18.30;99.90;;;;;;5033966;28;20199;-62
2023/09/26 08:40:27;;;;;;;18.83;15.27;;;18.40;99.90;;;;;;5033477;28;20215;-63
2023/09/26 08:42:57;;;;;;;17.13;14.63;;;18.40;99.90;;;;;;5038053;28;20200;-65
2023/09/26 08:45:25;;;;;;;18.73;15.00;;;18.50;99.90;;;;;;5034311;28;20212;-64
2023/09/26 08:47:53;;;;;;;16.13;13.53;;;18.60;99.90;;;;;;5034962;28;20944;-67
2023/09/26 08:50:19;;;;;;;16.57;14.87;;;18.70;99.90;;;;;;5034858;28;20199;-64
2023/09/26 08:52:44;;;;;;;17.37;15.50;;;18.70;99.90;;;;;;5033219;28;20213;-64
2023/09/26 08:55:10;;;;;;;17.10;15.23;;;18.80;99.90;;;;;;5036022;28;20232;-64
2023/09/26 08:57:38;;;;;;;15.97;13.93;;;18.80;99.90;;;;;;5030860;28;20797;-68
2023/09/26 09:00:08;;;;;;;18.87;14.63;;;18.80;99.90;;;;;;5036837;28;20672;-68
2023/09/26 09:02:34;;;;;;;16.90;14.50;;;18.90;99.90;;;;;;5018701;28;20222;-64
2023/09/26 09:04:59;;;;;;;19.70;15.20;;;19.00;99.90;;;;;;5038919;28;20199;-63
2023/09/26 09:07:26;;;;;;;18.63;14.90;;;19.00;99.90;;;;;;5032296;28;20288;-63
2023/09/26 09:10:11;;;;;;;16.50;14.70;;;19.00;99.90;;;;;;5033275;28;20551;-63
2023/09/26 09:12:38;;;;;;;15.70;14.03;;;19.00;99.90;;;;;;5033271;28;20234;-63
2023/09/26 09:15:24;;;;;;;15.23;13.70;;;18.90;99.90;;;;;;5037088;28;20638;-63
2023/09/26 09:17:52;;;;;;;18.37;14.87;;;18.90;99.90;;;;;;5029378;28;20269;-63
2023/09/26 09:20:32;;;;;;;14.47;12.73;;;18.90;99.90;;;;;;5036355;28;20769;-62
2023/09/26 09:23:05;;;;;;;14.80;13.30;;;19.10;99.90;;;;;;5032841;28;20204;-64
2023/09/26 09:25:38;;;;;;;13.53;12.23;;;19.10;99.90;;;;;;5033487;28;20304;-63
2023/09/26 09:28:07;;;;;;;14.30;12.13;;;19.20;99.90;;;;;;5039607;28;20207;-63
2023/09/26 09:30:42;;;;;;;12.63;11.33;;;19.40;99.90;;;;;;5034269;28;20206;-64
2023/09/26 09:33:09;;;;;;;12.83;11.03;;;19.40;99.90;;;;;;5036411;28;20217;-62
2023/09/26 09:35:36;;;;;;;10.67;9.73;;;19.40;99.90;;;;;;5036760;28;20207;-63
2023/09/26 09:38:02;;;;;;;9.97;8.33;;;19.50;99.90;;;;;;5043303;28;20193;-63
2023/09/26 09:40:28;;;;;;;12.10;9.60;;;19.60;99.90;;;;;;5040252;28;20286;-63
2023/09/26 09:42:54;;;;;;;11.77;10.57;;;19.60;99.90;;;;;;5035581;28;20317;-63
2023/09/26 09:45:19;;;;;;;11.53;9.50;;;19.60;99.90;;;;;;5033912;28;21144;-63
2023/09/26 09:47:46;;;;;;;11.23;9.87;;;19.70;99.90;;;;;;5039212;28;20201;-63
2023/09/26 09:50:13;;;;;;;12.67;10.77;;;19.90;99.90;;;;;;5035097;28;20332;-62
2023/09/26 09:52:43;;;;;;;12.87;10.90;;;19.90;99.90;;;;;;5039134;28;20753;-62
2023/09/26 09:55:15;;;;;;;11.40;9.90;;;19.80;99.90;;;;;;5035296;28;20770;-64
2023/09/26 09:57:45;;;;;;;10.63;9.50;;;19.90;99.90;;;;;;5038137;28;20231;-63
2023/09/26 10:00:14;;;;;;;10.23;9.03;;;20.00;99.90;;;;;;5035332;28;20958;-63
2023/09/26 10:02:39;;;;;;;10.63;9.60;;;20.00;99.90;;;;;;5038817;28;20257;-63
2023/09/26 10:05:12;;;;;;;9.77;8.77;;;20.10;99.90;;;;;;5034847;28;20227;-64
2023/09/26 10:07:39;;;;;;;11.13;9.43;;;20.20;99.90;;;;;;5033477;28;20233;-62
2023/09/26 10:10:09;;;;;;;8.80;8.00;;;20.30;99.90;;;;;;5036903;28;20201;-63
2023/09/26 10:12:36;;;;;;;8.67;7.77;;;20.40;99.90;;;;;;5040899;28;20223;-63
2023/09/26 10:15:03;;;;;;;9.80;8.43;;;20.50;99.90;;;;;;5041575;28;20281;-63
2023/09/26 10:17:28;;;;;;;7.67;7.00;;;20.30;99.90;;;;;;5040229;28;20221;-62
2023/09/26 10:19:55;;;;;;;7.40;6.70;;;20.40;99.90;;;;;;5041746;28;20210;-62
2023/09/26 10:22:21;;;;;;;8.67;7.70;;;20.60;99.90;;;;;;5040193;28;20791;-63
2023/09/26 10:24:49;;;;;;;7.90;7.10;;;20.50;99.90;;;;;;5038192;28;20210;-63
2023/09/26 10:27:23;;;;;;;9.07;6.93;;;20.60;99.90;;;;;;5034928;28;20201;-63
2023/09/26 10:29:52;;;;;;;9.27;5.87;;;20.70;99.90;;;;;;5033162;28;20974;-63
2023/09/26 10:32:35;;;;;;;8.33;6.93;;;20.80;99.90;;;;;;5034203;28;20251;-63
2023/09/26 10:35:24;;;;;;;8.83;7.93;;;21.10;99.90;;;;;;5036023;28;20226;-63
2023/09/26 10:38:02;;;;;;;8.20;4.83;;;21.30;99.90;;;;;;5039100;28;20302;-63
2023/09/26 10:40:27;;;;;;;8.10;6.87;;;21.40;99.90;;;;;;5036177;28;20210;-63
2023/09/26 10:42:53;;;;;;;7.27;6.40;;;21.50;99.90;;;;;;5036877;28;20202;-63
2023/09/26 10:45:19;;;;;;;7.70;6.80;;;21.70;99.90;;;;;;5029292;28;20213;-62
2023/09/26 10:47:45;;;;;;;7.07;6.13;;;21.80;99.90;;;;;;5038304;28;20281;-63
2023/09/26 10:50:14;;;;;;;9.70;8.02;;;21.90;99.90;;;;;;5034134;28;20438;-62
2023/09/26 10:52:49;;;;;;;8.07;5.57;;;22.00;99.90;;;;;;5033529;28;20226;-62
2023/09/26 10:55:15;;;;;;;8.33;7.57;;;22.20;99.90;;;;;;5036465;28;20236;-62
2023/09/26 10:57:42;;;;;;;9.33;6.67;;;22.20;99.90;;;;;;5034663;28;20234;-62
2023/09/26 11:00:13;;;;;;;10.77;7.63;;;22.50;99.90;;;;;;5040331;28;20259;-63
2023/09/26 11:02:39;;;;;;;8.03;7.20;;;22.70;99.90;;;;;;5033211;28;20591;-62
2023/09/26 11:05:13;;;;;;;8.63;7.43;;;22.60;99.90;;;;;;5037292;28;20289;-62
2023/09/26 11:07:40;;;;;;;6.28;5.68;;;22.70;99.90;;;;;;5035868;28;20203;-66
2023/09/26 11:10:15;;;;;;;6.87;6.27;;;22.50;99.90;;;;;;5033827;28;20194;-66
2023/09/26 11:12:41;;;;;;;11.47;6.60;;;22.40;99.90;;;;;;5035504;28;20230;-63
2023/09/26 11:15:07;;;;;;;6.53;5.90;;;22.90;99.90;;;;;;5033892;28;20201;-68
2023/09/26 11:17:36;;;;;;;7.27;5.33;;;23.00;99.90;;;;;;5034451;28;20239;-62
2023/09/26 11:20:05;;;;;;;9.95;6.15;;;23.10;99.90;;;;;;5033083;28;20209;-68
2023/09/26 11:22:43;;;;;;;7.05;6.35;;;23.30;99.90;;;;;;5034057;28;20202;-61
2023/09/26 11:25:09;;;;;;;5.90;5.25;;;23.40;99.90;;;;;;5025383;28;20219;-61
2023/09/26 11:27:43;;;;;;;5.63;4.95;;;23.80;99.90;;;;;;5040862;28;20262;-67
2023/09/26 11:30:14;;;;;;;5.65;4.63;;;23.80;99.90;;;;;;5037752;28;20220;-66
2023/09/26 11:32:46;;;;;;;7.22;5.35;;;23.60;99.90;;;;;;5040311;28;20224;-64
2023/09/26 11:35:14;;;;;;;5.38;4.88;;;24.10;99.90;;;;;;5039769;28;20311;-63
2023/09/26 11:37:39;;;;;;;6.38;5.53;;;23.90;99.90;;;;;;5031547;28;20235;-63
2023/09/26 11:40:19;;;;;;;7.35;5.65;;;24.10;99.90;;;;;;5035092;28;20228;-62
2023/09/26 11:42:46;;;;;;;8.38;5.60;;;23.70;99.90;;;;;;5030193;28;20219;-62
2023/09/26 11:45:31;;;;;;;5.25;4.38;;;24.10;99.90;;;;;;5033335;28;20392;-62
2023/09/26 11:47:58;;;;;;;5.82;5.32;;;24.20;99.90;;;;;;5032370;28;20266;-65
2023/09/26 11:50:25;;;;;;;4.75;4.25;;;24.40;99.90;;;;;;5032265;28;20271;-64
2023/09/26 11:52:51;;;;;;;6.10;5.55;;;24.40;99.90;;;;;;5030962;28;20255;-64
2023/09/26 11:55:20;;;;;;;5.97;5.50;;;24.20;99.90;;;;;;5035280;28;20266;-65
2023/09/26 11:57:48;;;;;;;5.28;4.25;;;24.30;99.90;;;;;;5031085;28;20283;-62
2023/09/26 12:00:20;;;;;;;7.82;5.88;;;24.00;99.90;;;;;;5035636;28;20224;-61
2023/09/26 12:02:49;;;;;;;6.15;5.55;;;24.50;99.90;;;;;;5039562;28;20196;-61
2023/09/26 12:05:17;;;;;;;5.82;5.22;;;24.60;99.90;;;;;;5035110;28;20205;-61
2023/09/26 12:07:43;;;;;;;6.40;4.80;;;25.00;99.90;;;;;;5035808;28;20199;-61
2023/09/26 12:10:10;;;;;;;6.90;5.22;;;25.40;99.90;;;;;;5034356;28;20204;-63
2023/09/26 12:12:36;;;;;;;11.80;5.25;;;26.00;99.90;;;;;;5031918;28;20758;-67
2023/09/26 12:15:16;;;;;;;7.20;5.38;;;26.50;99.50;;;;;;5032238;28;20208;-67
2023/09/26 12:17:41;;;;;;;6.47;5.88;;;26.50;99.70;;;;;;5027764;28;20683;-68
2023/09/26 12:20:08;;;;;;;8.65;3.85;;;26.50;99.80;;;;;;5033022;28;20202;-67
2023/09/26 12:22:34;;;;;;;11.43;5.35;;;26.30;99.90;;;;;;5030918;28;20199;-63
2023/09/26 12:24:59;;;;;;;11.57;6.18;;;25.70;99.90;;;;;;5032573;28;20634;-62
2023/09/26 12:27:25;;;;;;;7.00;5.68;;;25.70;99.90;;;;;;5033112;28;20206;-62
2023/09/26 12:29:51;;;;;;;8.93;5.00;;;26.00;99.90;;;;;;5032027;28;20212;-67
2023/09/26 12:32:17;;;;;;;10.93;3.92;;;26.80;98.90;;;;;;5032309;28;20218;-69
2023/09/26 12:34:42;;;;;;;4.40;4.00;;;26.50;99.50;;;;;;5032807;28;20206;-67
2023/09/26 12:37:08;;;;;;;6.57;4.85;;;26.40;99.60;;;;;;5034281;28;20750;-65